Terminal Aerodrome Forecast
Issued by NWS Sioux Falls, SD

Home | Current Version | Previous Version | Graphics & Text | Print | Product List | Glossary On
Versions: 1 2 3 4 5 6 7 8 9 10 11 12 13
000
FTUS43 KFSD 140520
TAFFSD
TAF
KFSD 140520Z 1406/1506 20008KT P6SM SKC
     FM140900 VRB03KT P6SM SCT200
     FM141900 34005KT P6SM SCT100 BKN200
     FM150300 VRB03KT P6SM BKN050=

USA.gov is the U.S. government's official web portal to all federal, state and local government web resources and services.